sensor_id;sensor_type;location;lat;lon;timestamp;temperature;humidity
46492;DHT22;32206;51.446;6.792;2023-06-22T00:00:54;22.80;1.00
46492;DHT22;32206;51.446;6.792;2023-06-22T00:03:57;22.90;99.90
46492;DHT22;32206;51.446;6.792;2023-06-22T00:06:22;22.80;99.90
46492;DHT22;32206;51.446;6.792;2023-06-22T00:08:51;22.90;1.00
46492;DHT22;32206;51.446;6.792;2023-06-22T00:11:17;22.90;41.90
46492;DHT22;32206;51.446;6.792;2023-06-22T00:13:42;22.80;7.60
46492;DHT22;32206;51.446;6.792;2023-06-22T00:16:08;22.80;99.90
46492;DHT22;32206;51.446;6.792;2023-06-22T00:18:34;22.80;31.10
46492;DHT22;32206;51.446;6.792;2023-06-22T00:21:00;22.80;90.20
46492;DHT22;32206;51.446;6.792;2023-06-22T00:26:48;22.70;99.90
46492;DHT22;32206;51.446;6.792;2023-06-22T00:29:14;22.70;99.90
46492;DHT22;32206;51.446;6.792;2023-06-22T00:31:40;22.70;1.00
46492;DHT22;32206;51.446;6.792;2023-06-22T00:34:06;22.70;1.00
46492;DHT22;32206;51.446;6.792;2023-06-22T00:36:34;22.60;1.00
46492;DHT22;32206;51.446;6.792;2023-06-22T00:39:00;22.60;1.00
46492;DHT22;32206;51.446;6.792;2023-06-22T00:41:26;22.60;7.10
46492;DHT22;32206;51.446;6.792;2023-06-22T00:43:54;22.60;1.00
46492;DHT22;32206;51.446;6.792;2023-06-22T00:46:21;22.60;1.00
46492;DHT22;32206;51.446;6.792;2023-06-22T00:48:48;22.60;1.00
46492;DHT22;32206;51.446;6.792;2023-06-22T00:51:14;22.50;1.00
46492;DHT22;32206;51.446;6.792;2023-06-22T00:53:40;22.50;15.60
46492;DHT22;32206;51.446;6.792;2023-06-22T00:56:06;22.50;93.90
46492;DHT22;32206;51.446;6.792;2023-06-22T00:58:35;22.50;99.90
46492;DHT22;32206;51.446;6.792;2023-06-22T01:01:01;22.50;99.90
46492;DHT22;32206;51.446;6.792;2023-06-22T01:03:36;22.40;99.90
46492;DHT22;32206;51.446;6.792;2023-06-22T01:06:07;22.40;99.90
46492;DHT22;32206;51.446;6.792;2023-06-22T01:15:28;22.30;99.90
46492;DHT22;32206;51.446;6.792;2023-06-22T01:21:19;22.30;99.90
46492;DHT22;32206;51.446;6.792;2023-06-22T01:29:33;22.20;99.90
46492;DHT22;32206;51.446;6.792;2023-06-22T01:38:38;22.20;99.90
46492;DHT22;32206;51.446;6.792;2023-06-22T01:41:04;22.10;99.90
46492;DHT22;32206;51.446;6.792;2023-06-22T01:47:13;22.00;99.90
46492;DHT22;32206;51.446;6.792;2023-06-22T01:49:40;22.00;1.00
46492;DHT22;32206;51.446;6.792;2023-06-22T01:52:07;22.00;1.00
46492;DHT22;32206;51.446;6.792;2023-06-22T01:54:33;21.90;1.00
46492;DHT22;32206;51.446;6.792;2023-06-22T01:56:58;21.90;1.00
46492;DHT22;32206;51.446;6.792;2023-06-22T02:03:03;21.90;1.00
46492;DHT22;32206;51.446;6.792;2023-06-22T02:08:59;21.90;1.00
46492;DHT22;32206;51.446;6.792;2023-06-22T02:11:26;21.80;1.00
46492;DHT22;32206;51.446;6.792;2023-06-22T02:13:55;21.80;1.00
46492;DHT22;32206;51.446;6.792;2023-06-22T02:19:24;21.70;1.00
46492;DHT22;32206;51.446;6.792;2023-06-22T02:21:51;21.70;1.00
46492;DHT22;32206;51.446;6.792;2023-06-22T02:27:38;21.70;1.00
46492;DHT22;32206;51.446;6.792;2023-06-22T02:37:00;21.70;1.00
46492;DHT22;32206;51.446;6.792;2023-06-22T02:42:49;21.60;1.00
46492;DHT22;32206;51.446;6.792;2023-06-22T02:45:15;21.60;1.00
46492;DHT22;32206;51.446;6.792;2023-06-22T02:47:41;21.60;1.00
46492;DHT22;32206;51.446;6.792;2023-06-22T02:50:07;21.60;1.00
46492;DHT22;32206;51.446;6.792;2023-06-22T02:52:41;21.50;1.00
46492;DHT22;32206;51.446;6.792;2023-06-22T02:55:07;21.60;1.00
46492;DHT22;32206;51.446;6.792;2023-06-22T02:57:33;21.60;1.00
46492;DHT22;32206;51.446;6.792;2023-06-22T02:59:59;21.50;1.00
46492;DHT22;32206;51.446;6.792;2023-06-22T03:02:25;21.60;1.00
46492;DHT22;32206;51.446;6.792;2023-06-22T03:04:52;21.50;1.00
46492;DHT22;32206;51.446;6.792;2023-06-22T03:07:19;21.50;1.00
46492;DHT22;32206;51.446;6.792;2023-06-22T03:09:45;21.50;1.00
46492;DHT22;32206;51.446;6.792;2023-06-22T03:12:11;21.50;1.00
46492;DHT22;32206;51.446;6.792;2023-06-22T03:14:37;21.50;1.00
46492;DHT22;32206;51.446;6.792;2023-06-22T03:17:04;21.50;1.00
46492;DHT22;32206;51.446;6.792;2023-06-22T03:19:30;21.40;1.00
46492;DHT22;32206;51.446;6.792;2023-06-22T03:22:00;21.40;1.00
46492;DHT22;32206;51.446;6.792;2023-06-22T03:27:57;21.30;1.00
46492;DHT22;32206;51.446;6.792;2023-06-22T03:30:23;21.30;1.00
46492;DHT22;32206;51.446;6.792;2023-06-22T03:33:19;21.20;1.00
46492;DHT22;32206;51.446;6.792;2023-06-22T03:35:45;21.30;1.00
46492;DHT22;32206;51.446;6.792;2023-06-22T03:38:10;21.30;1.00
46492;DHT22;32206;51.446;6.792;2023-06-22T03:40:36;21.30;1.00
46492;DHT22;32206;51.446;6.792;2023-06-22T03:43:02;21.30;1.00
46492;DHT22;32206;51.446;6.792;2023-06-22T03:45:27;21.20;1.00
46492;DHT22;32206;51.446;6.792;2023-06-22T03:47:53;21.20;1.00
46492;DHT22;32206;51.446;6.792;2023-06-22T03:50:18;21.20;1.00
46492;DHT22;32206;51.446;6.792;2023-06-22T03:55:55;21.20;1.00
46492;DHT22;32206;51.446;6.792;2023-06-22T03:58:21;21.20;1.00
46492;DHT22;32206;51.446;6.792;2023-06-22T04:00:48;21.20;1.00
46492;DHT22;32206;51.446;6.792;2023-06-22T04:06:35;21.20;1.00
46492;DHT22;32206;51.446;6.792;2023-06-22T04:12:23;21.20;1.00
46492;DHT22;32206;51.446;6.792;2023-06-22T04:14:49;21.30;1.00
46492;DHT22;32206;51.446;6.792;2023-06-22T04:17:14;21.20;1.00
46492;DHT22;32206;51.446;6.792;2023-06-22T04:19:41;21.30;1.00
46492;DHT22;32206;51.446;6.792;2023-06-22T04:22:06;21.30;1.00
46492;DHT22;32206;51.446;6.792;2023-06-22T04:27:54;21.30;1.00
46492;DHT22;32206;51.446;6.792;2023-06-22T04:30:20;21.40;1.00
46492;DHT22;32206;51.446;6.792;2023-06-22T04:43:20;21.40;1.00
46492;DHT22;32206;51.446;6.792;2023-06-22T04:45:45;21.40;1.00
46492;DHT22;32206;51.446;6.792;2023-06-22T04:51:26;21.40;1.00
46492;DHT22;32206;51.446;6.792;2023-06-22T05:00:40;21.50;1.00
46492;DHT22;32206;51.446;6.792;2023-06-22T05:03:09;21.40;1.00
46492;DHT22;32206;51.446;6.792;2023-06-22T05:05:36;21.40;1.00
46492;DHT22;32206;51.446;6.792;2023-06-22T05:18:09;21.50;1.00
46492;DHT22;32206;51.446;6.792;2023-06-22T05:20:37;21.60;1.00
46492;DHT22;32206;51.446;6.792;2023-06-22T05:23:02;21.50;1.00
46492;DHT22;32206;51.446;6.792;2023-06-22T05:25:28;21.50;1.00
46492;DHT22;32206;51.446;6.792;2023-06-22T05:27:55;21.50;1.00
46492;DHT22;32206;51.446;6.792;2023-06-22T05:30:20;21.50;1.00
46492;DHT22;32206;51.446;6.792;2023-06-22T05:35:55;21.60;1.00
46492;DHT22;32206;51.446;6.792;2023-06-22T05:41:30;21.60;1.00
46492;DHT22;32206;51.446;6.792;2023-06-22T05:43:56;21.60;1.00
46492;DHT22;32206;51.446;6.792;2023-06-22T05:46:22;21.60;1.00
46492;DHT22;32206;51.446;6.792;2023-06-22T05:48:48;21.60;1.00
46492;DHT22;32206;51.446;6.792;2023-06-22T05:51:13;21.70;1.00
46492;DHT22;32206;51.446;6.792;2023-06-22T05:53:39;21.70;1.00
46492;DHT22;32206;51.446;6.792;2023-06-22T05:56:04;21.70;1.00
46492;DHT22;32206;51.446;6.792;2023-06-22T05:58:30;21.70;1.00
46492;DHT22;32206;51.446;6.792;2023-06-22T06:00:56;21.60;1.00
46492;DHT22;32206;51.446;6.792;2023-06-22T06:06:43;21.60;1.00
46492;DHT22;32206;51.446;6.792;2023-06-22T06:12:31;21.50;1.00
46492;DHT22;32206;51.446;6.792;2023-06-22T06:14:56;21.40;1.00
46492;DHT22;32206;51.446;6.792;2023-06-22T06:17:22;21.40;7.30
46492;DHT22;32206;51.446;6.792;2023-06-22T06:19:48;21.40;13.70
46492;DHT22;32206;51.446;6.792;2023-06-22T06:22:13;21.30;20.10
46492;DHT22;32206;51.446;6.792;2023-06-22T06:24:39;21.30;30.10
46492;DHT22;32206;51.446;6.792;2023-06-22T06:27:04;21.20;29.90
46492;DHT22;32206;51.446;6.792;2023-06-22T06:29:31;21.10;41.10
46492;DHT22;32206;51.446;6.792;2023-06-22T06:31:57;21.20;47.50
46492;DHT22;32206;51.446;6.792;2023-06-22T06:37:45;21.10;56.80
46492;DHT22;32206;51.446;6.792;2023-06-22T06:40:13;21.00;66.40
46492;DHT22;32206;51.446;6.792;2023-06-22T06:46:00;21.00;72.10
46492;DHT22;32206;51.446;6.792;2023-06-22T06:48:28;21.00;74.90
46492;DHT22;32206;51.446;6.792;2023-06-22T06:50:54;20.90;74.60
46492;DHT22;32206;51.446;6.792;2023-06-22T06:56:41;21.00;72.80
46492;DHT22;32206;51.446;6.792;2023-06-22T06:59:10;20.90;76.50
46492;DHT22;32206;51.446;6.792;2023-06-22T07:01:35;21.00;76.50
46492;DHT22;32206;51.446;6.792;2023-06-22T07:07:24;21.10;57.90
46492;DHT22;32206;51.446;6.792;2023-06-22T07:13:11;21.10;56.50
46492;DHT22;32206;51.446;6.792;2023-06-22T07:15:37;21.20;58.70
46492;DHT22;32206;51.446;6.792;2023-06-22T07:18:03;21.20;58.50
46492;DHT22;32206;51.446;6.792;2023-06-22T07:20:29;21.20;60.60
46492;DHT22;32206;51.446;6.792;2023-06-22T07:22:54;21.20;64.40
46492;DHT22;32206;51.446;6.792;2023-06-22T07:25:20;21.20;62.70
46492;DHT22;32206;51.446;6.792;2023-06-22T07:27:57;21.30;59.20
46492;DHT22;32206;51.446;6.792;2023-06-22T07:30:23;21.30;58.50
46492;DHT22;32206;51.446;6.792;2023-06-22T07:39:33;21.40;59.00
46492;DHT22;32206;51.446;6.792;2023-06-22T07:45:24;21.40;68.40
46492;DHT22;32206;51.446;6.792;2023-06-22T07:47:50;21.40;66.30
46492;DHT22;32206;51.446;6.792;2023-06-22T07:50:16;21.40;72.00
46492;DHT22;32206;51.446;6.792;2023-06-22T07:59:25;21.40;77.20
46492;DHT22;32206;51.446;6.792;2023-06-22T08:01:51;21.40;84.50
46492;DHT22;32206;51.446;6.792;2023-06-22T08:04:16;21.40;80.70
46492;DHT22;32206;51.446;6.792;2023-06-22T08:06:42;21.40;82.10
46492;DHT22;32206;51.446;6.792;2023-06-22T08:09:09;21.40;81.70
46492;DHT22;32206;51.446;6.792;2023-06-22T08:11:34;21.50;82.00
46492;DHT22;32206;51.446;6.792;2023-06-22T08:14:00;21.50;79.50
46492;DHT22;32206;51.446;6.792;2023-06-22T08:16:25;21.50;79.80
46492;DHT22;32206;51.446;6.792;2023-06-22T08:18:51;21.50;82.90
46492;DHT22;32206;51.446;6.792;2023-06-22T08:21:17;21.50;76.80
46492;DHT22;32206;51.446;6.792;2023-06-22T08:27:07;21.60;72.30
46492;DHT22;32206;51.446;6.792;2023-06-22T08:29:35;21.60;67.80
46492;DHT22;32206;51.446;6.792;2023-06-22T08:32:00;21.60;63.60
46492;DHT22;32206;51.446;6.792;2023-06-22T08:34:38;21.70;60.60
46492;DHT22;32206;51.446;6.792;2023-06-22T08:37:10;21.70;54.60
46492;DHT22;32206;51.446;6.792;2023-06-22T08:39:36;21.70;46.50
46492;DHT22;32206;51.446;6.792;2023-06-22T08:42:02;21.80;48.30
46492;DHT22;32206;51.446;6.792;2023-06-22T08:44:27;21.80;50.30
46492;DHT22;32206;51.446;6.792;2023-06-22T08:46:53;21.90;49.80
46492;DHT22;32206;51.446;6.792;2023-06-22T08:49:18;21.90;45.00
46492;DHT22;32206;51.446;6.792;2023-06-22T08:51:44;22.00;42.20
46492;DHT22;32206;51.446;6.792;2023-06-22T08:57:36;22.00;37.20
46492;DHT22;32206;51.446;6.792;2023-06-22T09:06:49;22.20;41.00
46492;DHT22;32206;51.446;6.792;2023-06-22T09:09:16;22.30;37.40
46492;DHT22;32206;51.446;6.792;2023-06-22T09:11:42;22.30;37.10
46492;DHT22;32206;51.446;6.792;2023-06-22T09:14:09;22.40;25.00
46492;DHT22;32206;51.446;6.792;2023-06-22T09:16:35;22.40;25.40
46492;DHT22;32206;51.446;6.792;2023-06-22T09:19:00;22.50;20.00
46492;DHT22;32206;51.446;6.792;2023-06-22T09:21:26;22.60;16.50
46492;DHT22;32206;51.446;6.792;2023-06-22T09:24:23;22.60;12.30
46492;DHT22;32206;51.446;6.792;2023-06-22T09:26:49;22.70;11.70
46492;DHT22;32206;51.446;6.792;2023-06-22T09:29:14;22.80;10.10
46492;DHT22;32206;51.446;6.792;2023-06-22T09:38:24;23.00;1.00
46492;DHT22;32206;51.446;6.792;2023-06-22T09:40:50;23.00;1.00
46492;DHT22;32206;51.446;6.792;2023-06-22T09:43:18;23.20;1.00
46492;DHT22;32206;51.446;6.792;2023-06-22T09:45:43;23.30;1.00
46492;DHT22;32206;51.446;6.792;2023-06-22T09:54:53;23.50;1.00
46492;DHT22;32206;51.446;6.792;2023-06-22T09:57:19;23.60;1.00
46492;DHT22;32206;51.446;6.792;2023-06-22T09:59:44;23.80;1.00
46492;DHT22;32206;51.446;6.792;2023-06-22T10:02:10;24.00;1.00
46492;DHT22;32206;51.446;6.792;2023-06-22T10:04:36;24.20;1.00
46492;DHT22;32206;51.446;6.792;2023-06-22T10:07:02;24.30;1.00
46492;DHT22;32206;51.446;6.792;2023-06-22T10:09:28;24.50;1.00
46492;DHT22;32206;51.446;6.792;2023-06-22T10:11:54;24.70;1.00
46492;DHT22;32206;51.446;6.792;2023-06-22T10:14:20;24.80;1.00
46492;DHT22;32206;51.446;6.792;2023-06-22T10:16:45;25.00;1.00
46492;DHT22;32206;51.446;6.792;2023-06-22T10:19:11;25.00;1.00
46492;DHT22;32206;51.446;6.792;2023-06-22T10:21:37;25.20;1.00
46492;DHT22;32206;51.446;6.792;2023-06-22T10:27:25;25.30;1.00
46492;DHT22;32206;51.446;6.792;2023-06-22T10:29:50;25.50;1.00
46492;DHT22;32206;51.446;6.792;2023-06-22T10:32:16;25.60;99.90
46492;DHT22;32206;51.446;6.792;2023-06-22T10:34:41;25.70;99.90
46492;DHT22;32206;51.446;6.792;2023-06-22T10:37:07;25.60;99.90
46492;DHT22;32206;51.446;6.792;2023-06-22T10:42:58;25.60;99.90
46492;DHT22;32206;51.446;6.792;2023-06-22T10:45:24;25.60;99.90
46492;DHT22;32206;51.446;6.792;2023-06-22T10:47:49;25.70;99.90
46492;DHT22;32206;51.446;6.792;2023-06-22T10:50:15;25.60;99.90
46492;DHT22;32206;51.446;6.792;2023-06-22T10:52:41;25.60;99.90
46492;DHT22;32206;51.446;6.792;2023-06-22T10:55:10;25.70;99.90
46492;DHT22;32206;51.446;6.792;2023-06-22T10:57:35;25.70;99.90
46492;DHT22;32206;51.446;6.792;2023-06-22T11:00:02;25.60;99.90
46492;DHT22;32206;51.446;6.792;2023-06-22T11:02:31;25.50;99.90
46492;DHT22;32206;51.446;6.792;2023-06-22T11:04:57;25.50;99.90
46492;DHT22;32206;51.446;6.792;2023-06-22T11:07:26;25.50;99.90
46492;DHT22;32206;51.446;6.792;2023-06-22T11:09:53;25.40;99.90
46492;DHT22;32206;51.446;6.792;2023-06-22T11:12:18;25.40;99.90
46492;DHT22;32206;51.446;6.792;2023-06-22T11:14:44;25.40;99.90
46492;DHT22;32206;51.446;6.792;2023-06-22T11:17:09;25.30;99.90
46492;DHT22;32206;51.446;6.792;2023-06-22T11:22:57;25.30;99.90
46492;DHT22;32206;51.446;6.792;2023-06-22T11:25:23;25.30;99.90
46492;DHT22;32206;51.446;6.792;2023-06-22T11:27:49;25.20;1.00
46492;DHT22;32206;51.446;6.792;2023-06-22T11:30:16;25.10;1.00
46492;DHT22;32206;51.446;6.792;2023-06-22T11:32:42;25.10;1.00
46492;DHT22;32206;51.446;6.792;2023-06-22T11:38:30;24.90;1.00
46492;DHT22;32206;51.446;6.792;2023-06-22T11:40:57;24.80;1.00
46492;DHT22;32206;51.446;6.792;2023-06-22T11:43:23;24.60;2.20
46492;DHT22;32206;51.446;6.792;2023-06-22T11:45:49;24.50;17.90
46492;DHT22;32206;51.446;6.792;2023-06-22T11:48:15;24.30;30.90
46492;DHT22;32206;51.446;6.792;2023-06-22T11:50:40;24.20;55.10
46492;DHT22;32206;51.446;6.792;2023-06-22T11:53:06;23.90;79.60
46492;DHT22;32206;51.446;6.792;2023-06-22T11:55:31;23.90;90.50
46492;DHT22;32206;51.446;6.792;2023-06-22T11:57:58;23.80;96.90
46492;DHT22;32206;51.446;6.792;2023-06-22T12:00:26;23.70;99.90
46492;DHT22;32206;51.446;6.792;2023-06-22T12:02:52;23.60;99.90
46492;DHT22;32206;51.446;6.792;2023-06-22T12:08:39;23.40;99.90
46492;DHT22;32206;51.446;6.792;2023-06-22T12:11:05;23.20;99.90
46492;DHT22;32206;51.446;6.792;2023-06-22T12:13:30;23.20;99.90
46492;DHT22;32206;51.446;6.792;2023-06-22T12:15:56;23.20;99.90
46492;DHT22;32206;51.446;6.792;2023-06-22T12:21:43;23.20;99.90
46492;DHT22;32206;51.446;6.792;2023-06-22T12:24:11;23.20;99.90
46492;DHT22;32206;51.446;6.792;2023-06-22T12:26:36;23.20;99.90
46492;DHT22;32206;51.446;6.792;2023-06-22T12:32:15;23.20;99.90
46492;DHT22;32206;51.446;6.792;2023-06-22T12:34:42;23.30;99.90
46492;DHT22;32206;51.446;6.792;2023-06-22T12:47:39;23.40;99.90
46492;DHT22;32206;51.446;6.792;2023-06-22T12:53:27;23.40;99.90
46492;DHT22;32206;51.446;6.792;2023-06-22T12:59:14;23.40;99.90
46492;DHT22;32206;51.446;6.792;2023-06-22T13:05:02;23.40;99.90
46492;DHT22;32206;51.446;6.792;2023-06-22T13:07:30;23.30;99.90
46492;DHT22;32206;51.446;6.792;2023-06-22T13:20:39;23.20;99.90
46492;DHT22;32206;51.446;6.792;2023-06-22T13:23:05;23.20;99.90
46492;DHT22;32206;51.446;6.792;2023-06-22T13:29:05;23.20;99.90
46492;DHT22;32206;51.446;6.792;2023-06-22T13:38:15;23.10;99.90
46492;DHT22;32206;51.446;6.792;2023-06-22T13:47:31;23.30;99.90
46492;DHT22;32206;51.446;6.792;2023-06-22T13:56:41;23.40;99.90
46492;DHT22;32206;51.446;6.792;2023-06-22T13:59:28;23.50;99.90
46492;DHT22;32206;51.446;6.792;2023-06-22T14:01:54;23.60;99.90
46492;DHT22;32206;51.446;6.792;2023-06-22T14:07:42;23.70;99.90
46492;DHT22;32206;51.446;6.792;2023-06-22T14:27:27;23.70;99.90
46492;DHT22;32206;51.446;6.792;2023-06-22T14:29:53;23.60;99.90
46492;DHT22;32206;51.446;6.792;2023-06-22T14:45:48;23.50;99.90
46492;DHT22;32206;51.446;6.792;2023-06-22T14:48:13;23.50;99.90
46492;DHT22;32206;51.446;6.792;2023-06-22T14:50:39;23.40;99.90
46492;DHT22;32206;51.446;6.792;2023-06-22T14:59:58;23.30;99.90
46492;DHT22;32206;51.446;6.792;2023-06-22T15:05:47;23.20;99.90
46492;DHT22;32206;51.446;6.792;2023-06-22T15:08:12;23.20;99.90
46492;DHT22;32206;51.446;6.792;2023-06-22T15:10:38;23.20;99.90
46492;DHT22;32206;51.446;6.792;2023-06-22T15:15:39;23.10;99.90
46492;DHT22;32206;51.446;6.792;2023-06-22T15:24:45;23.10;99.90
46492;DHT22;32206;51.446;6.792;2023-06-22T15:27:11;23.00;99.90
46492;DHT22;32206;51.446;6.792;2023-06-22T15:29:36;23.00;99.90
46492;DHT22;32206;51.446;6.792;2023-06-22T15:32:02;22.90;99.90
46492;DHT22;32206;51.446;6.792;2023-06-22T15:34:34;22.90;99.90
46492;DHT22;32206;51.446;6.792;2023-06-22T15:37:00;22.90;99.90
46492;DHT22;32206;51.446;6.792;2023-06-22T15:39:25;22.80;99.90
46492;DHT22;32206;51.446;6.792;2023-06-22T15:41:52;22.80;99.90
46492;DHT22;32206;51.446;6.792;2023-06-22T15:44:22;22.80;99.90
46492;DHT22;32206;51.446;6.792;2023-06-22T15:46:48;22.80;99.90
46492;DHT22;32206;51.446;6.792;2023-06-22T15:49:15;22.80;99.90
46492;DHT22;32206;51.446;6.792;2023-06-22T15:51:41;22.80;99.90
46492;DHT22;32206;51.446;6.792;2023-06-22T15:58:06;22.90;99.90
46492;DHT22;32206;51.446;6.792;2023-06-22T16:00:32;22.80;99.90
46492;DHT22;32206;51.446;6.792;2023-06-22T16:02:58;22.80;99.90
46492;DHT22;32206;51.446;6.792;2023-06-22T16:05:23;22.90;99.90
46492;DHT22;32206;51.446;6.792;2023-06-22T16:07:49;22.90;99.90
46492;DHT22;32206;51.446;6.792;2023-06-22T16:10:15;22.90;99.90
46492;DHT22;32206;51.446;6.792;2023-06-22T16:12:42;22.90;99.90
46492;DHT22;32206;51.446;6.792;2023-06-22T16:15:09;22.80;99.90
46492;DHT22;32206;51.446;6.792;2023-06-22T16:17:35;22.80;99.90
46492;DHT22;32206;51.446;6.792;2023-06-22T16:20:04;22.80;99.90
46492;DHT22;32206;51.446;6.792;2023-06-22T16:22:31;22.70;99.90
46492;DHT22;32206;51.446;6.792;2023-06-22T16:24:57;22.60;99.90
46492;DHT22;32206;51.446;6.792;2023-06-22T16:27:24;22.50;99.90
46492;DHT22;32206;51.446;6.792;2023-06-22T16:29:53;22.40;99.90
46492;DHT22;32206;51.446;6.792;2023-06-22T16:32:19;22.30;99.90
46492;DHT22;32206;51.446;6.792;2023-06-22T16:38:06;22.10;99.90
46492;DHT22;32206;51.446;6.792;2023-06-22T16:40:32;22.00;99.90
46492;DHT22;32206;51.446;6.792;2023-06-22T16:42:58;22.00;99.90
46492;DHT22;32206;51.446;6.792;2023-06-22T16:45:24;21.90;99.90
46492;DHT22;32206;51.446;6.792;2023-06-22T16:47:52;21.80;99.90
46492;DHT22;32206;51.446;6.792;2023-06-22T16:50:18;21.60;99.90
46492;DHT22;32206;51.446;6.792;2023-06-22T16:52:44;21.60;99.90
46492;DHT22;32206;51.446;6.792;2023-06-22T16:55:33;21.50;99.90
46492;DHT22;32206;51.446;6.792;2023-06-22T16:58:00;21.40;99.90
46492;DHT22;32206;51.446;6.792;2023-06-22T17:00:27;21.40;99.90
46492;DHT22;32206;51.446;6.792;2023-06-22T17:02:53;21.50;99.90
46492;DHT22;32206;51.446;6.792;2023-06-22T17:05:20;21.40;99.90
46492;DHT22;32206;51.446;6.792;2023-06-22T17:07:53;21.30;99.90
46492;DHT22;32206;51.446;6.792;2023-06-22T17:10:22;21.30;99.90
46492;DHT22;32206;51.446;6.792;2023-06-22T17:12:50;21.30;99.90
46492;DHT22;32206;51.446;6.792;2023-06-22T17:15:16;21.30;99.90
46492;DHT22;32206;51.446;6.792;2023-06-22T17:17:46;21.30;99.90
46492;DHT22;32206;51.446;6.792;2023-06-22T17:20:12;21.20;99.90
46492;DHT22;32206;51.446;6.792;2023-06-22T17:22:37;21.20;99.90
46492;DHT22;32206;51.446;6.792;2023-06-22T17:25:07;21.20;99.90
46492;DHT22;32206;51.446;6.792;2023-06-22T17:27:34;21.20;99.90
46492;DHT22;32206;51.446;6.792;2023-06-22T17:30:10;21.20;99.90
46492;DHT22;32206;51.446;6.792;2023-06-22T17:32:36;21.20;99.90
46492;DHT22;32206;51.446;6.792;2023-06-22T17:35:05;21.20;99.90
46492;DHT22;32206;51.446;6.792;2023-06-22T17:37:47;21.20;99.90
46492;DHT22;32206;51.446;6.792;2023-06-22T17:40:21;21.20;99.90
46492;DHT22;32206;51.446;6.792;2023-06-22T17:42:47;21.10;99.90
46492;DHT22;32206;51.446;6.792;2023-06-22T17:45:16;21.10;99.90
46492;DHT22;32206;51.446;6.792;2023-06-22T17:47:52;21.10;99.90
46492;DHT22;32206;51.446;6.792;2023-06-22T17:53:48;21.10;99.90
46492;DHT22;32206;51.446;6.792;2023-06-22T17:56:17;21.00;99.90
46492;DHT22;32206;51.446;6.792;2023-06-22T17:58:52;21.00;99.90
46492;DHT22;32206;51.446;6.792;2023-06-22T18:01:35;20.90;99.90
46492;DHT22;32206;51.446;6.792;2023-06-22T18:04:16;20.90;99.90
46492;DHT22;32206;51.446;6.792;2023-06-22T18:06:44;20.90;99.90
46492;DHT22;32206;51.446;6.792;2023-06-22T18:09:15;20.90;99.90
46492;DHT22;32206;51.446;6.792;2023-06-22T18:11:44;20.90;99.90
46492;DHT22;32206;51.446;6.792;2023-06-22T18:14:10;20.80;99.90
46492;DHT22;32206;51.446;6.792;2023-06-22T18:16:39;20.70;99.90
46492;DHT22;32206;51.446;6.792;2023-06-22T18:19:06;20.70;99.90
46492;DHT22;32206;51.446;6.792;2023-06-22T18:21:32;20.60;99.90
46492;DHT22;32206;51.446;6.792;2023-06-22T18:23:59;20.60;99.90
46492;DHT22;32206;51.446;6.792;2023-06-22T18:26:26;20.60;99.90
46492;DHT22;32206;51.446;6.792;2023-06-22T18:28:53;20.60;99.90
46492;DHT22;32206;51.446;6.792;2023-06-22T18:31:20;20.50;99.90
46492;DHT22;32206;51.446;6.792;2023-06-22T18:40:30;20.40;99.90
46492;DHT22;32206;51.446;6.792;2023-06-22T18:42:59;20.30;99.90
46492;DHT22;32206;51.446;6.792;2023-06-22T18:45:29;20.30;99.90
46492;DHT22;32206;51.446;6.792;2023-06-22T18:48:01;20.10;99.90
46492;DHT22;32206;51.446;6.792;2023-06-22T18:50:42;20.30;99.90
46492;DHT22;32206;51.446;6.792;2023-06-22T18:55:41;20.30;99.90
46492;DHT22;32206;51.446;6.792;2023-06-22T18:58:15;20.20;99.90
46492;DHT22;32206;51.446;6.792;2023-06-22T19:00:42;20.20;99.90
46492;DHT22;32206;51.446;6.792;2023-06-22T19:09:18;19.90;99.90
46492;DHT22;32206;51.446;6.792;2023-06-22T19:11:44;19.90;99.90
46492;DHT22;32206;51.446;6.792;2023-06-22T19:14:35;19.90;99.90
46492;DHT22;32206;51.446;6.792;2023-06-22T19:17:01;19.90;99.90
46492;DHT22;32206;51.446;6.792;2023-06-22T19:19:26;19.80;99.90
46492;DHT22;32206;51.446;6.792;2023-06-22T19:22:01;19.80;99.90
46492;DHT22;32206;51.446;6.792;2023-06-22T19:24:31;19.70;99.90
46492;DHT22;32206;51.446;6.792;2023-06-22T19:26:57;19.60;99.90
46492;DHT22;32206;51.446;6.792;2023-06-22T19:29:23;19.40;99.90
46492;DHT22;32206;51.446;6.792;2023-06-22T19:31:50;19.30;99.90
46492;DHT22;32206;51.446;6.792;2023-06-22T19:34:15;19.10;99.90
46492;DHT22;32206;51.446;6.792;2023-06-22T19:40:14;18.80;99.90
46492;DHT22;32206;51.446;6.792;2023-06-22T19:42:41;18.70;99.90
46492;DHT22;32206;51.446;6.792;2023-06-22T19:45:08;18.70;99.90
46492;DHT22;32206;51.446;6.792;2023-06-22T19:47:35;18.60;99.90
46492;DHT22;32206;51.446;6.792;2023-06-22T19:50:02;18.60;99.90
46492;DHT22;32206;51.446;6.792;2023-06-22T19:52:40;18.60;99.90
46492;DHT22;32206;51.446;6.792;2023-06-22T19:55:08;18.60;99.90
46492;DHT22;32206;51.446;6.792;2023-06-22T19:57:39;18.60;99.90
46492;DHT22;32206;51.446;6.792;2023-06-22T20:00:07;18.50;99.90
46492;DHT22;32206;51.446;6.792;2023-06-22T20:02:43;18.60;99.90
46492;DHT22;32206;51.446;6.792;2023-06-22T20:05:11;18.50;99.90
46492;DHT22;32206;51.446;6.792;2023-06-22T20:07:39;18.50;99.90
46492;DHT22;32206;51.446;6.792;2023-06-22T20:10:13;18.50;99.90
46492;DHT22;32206;51.446;6.792;2023-06-22T20:19:34;18.60;99.90
46492;DHT22;32206;51.446;6.792;2023-06-22T20:22:05;18.60;99.90
46492;DHT22;32206;51.446;6.792;2023-06-22T20:24:31;18.60;99.90
46492;DHT22;32206;51.446;6.792;2023-06-22T20:26:58;18.50;99.90
46492;DHT22;32206;51.446;6.792;2023-06-22T20:29:32;18.60;99.90
46492;DHT22;32206;51.446;6.792;2023-06-22T20:34:36;18.50;99.90
46492;DHT22;32206;51.446;6.792;2023-06-22T20:37:02;18.60;99.90
46492;DHT22;32206;51.446;6.792;2023-06-22T20:39:28;18.60;99.90
46492;DHT22;32206;51.446;6.792;2023-06-22T20:41:54;18.60;99.90
46492;DHT22;32206;51.446;6.792;2023-06-22T20:44:20;18.60;99.90
46492;DHT22;32206;51.446;6.792;2023-06-22T20:46:46;18.50;99.90
46492;DHT22;32206;51.446;6.792;2023-06-22T20:49:12;18.50;99.90
46492;DHT22;32206;51.446;6.792;2023-06-22T20:51:37;18.50;99.90
46492;DHT22;32206;51.446;6.792;2023-06-22T20:57:25;18.50;99.90
46492;DHT22;32206;51.446;6.792;2023-06-22T20:59:51;18.40;99.90
46492;DHT22;32206;51.446;6.792;2023-06-22T21:02:17;18.30;99.90
46492;DHT22;32206;51.446;6.792;2023-06-22T21:04:42;18.30;99.90
46492;DHT22;32206;51.446;6.792;2023-06-22T21:07:08;18.30;99.90
46492;DHT22;32206;51.446;6.792;2023-06-22T21:09:34;18.20;99.90
46492;DHT22;32206;51.446;6.792;2023-06-22T21:15:21;18.20;99.90
46492;DHT22;32206;51.446;6.792;2023-06-22T21:17:47;18.20;99.90
46492;DHT22;32206;51.446;6.792;2023-06-22T21:20:14;18.10;99.90
46492;DHT22;32206;51.446;6.792;2023-06-22T21:22:40;18.10;99.90
46492;DHT22;32206;51.446;6.792;2023-06-22T21:25:10;18.10;99.90
46492;DHT22;32206;51.446;6.792;2023-06-22T21:27:38;18.10;99.90